Time;durP1;ratioP1;P1;durP2;ratioP2;P2;SDS_P1;SDS_P2;PMS_P1;PMS_P2;Temp;Humidity;BMP_temperature;BMP_pressure;BME280_temperature;BME280_humidity;BME280_pressure;Samples;Min_cycle;Max_cycle;Signal;HPM_P1;HPM_P2
2023/01/31 00:01:28;;;;;;;23.83;4.13;;;;;;;3.00;81.76;100571.91;5061732;28;20090;-58
2023/01/31 00:04:01;;;;;;;18.70;3.75;;;;;;;2.96;81.86;100564.25;5062073;28;20055;-60
2023/01/31 00:06:34;;;;;;;26.63;4.55;;;;;;;2.97;81.46;100577.22;5061439;28;20110;-55
2023/01/31 00:09:02;;;;;;;29.48;4.28;;;;;;;2.97;81.86;100577.22;5060399;28;20145;-59
2023/01/31 00:11:30;;;;;;;27.40;5.30;;;;;;;2.95;81.81;100567.75;5053794;28;20055;-58
2023/01/31 00:13:58;;;;;;;26.17;3.85;;;;;;;2.92;81.92;100571.28;5060590;28;20059;-58
2023/01/31 00:16:26;;;;;;;32.45;5.00;;;;;;;2.89;82.34;100579.19;5063939;28;20067;-59
2023/01/31 00:18:53;;;;;;;21.30;4.47;;;;;;;2.96;82.96;100585.03;5063997;28;20135;-62
2023/01/31 00:21:23;;;;;;;20.17;4.07;;;;;;;2.89;82.85;100575.72;5061506;28;20052;-58
2023/01/31 00:23:51;;;;;;;24.88;4.50;;;;;;;2.88;83.14;100587.00;5056562;28;20143;-58
2023/01/31 00:26:30;;;;;;;31.02;5.15;;;;;;;2.92;82.97;100583.44;5060944;28;20135;-59
2023/01/31 00:28:59;;;;;;;21.27;3.58;;;;;;;2.87;83.26;100593.94;5059230;28;20143;-60
2023/01/31 00:31:28;;;;;;;26.65;4.65;;;;;;;2.88;83.23;100597.41;5062263;28;20179;-61
2023/01/31 00:33:56;;;;;;;21.70;4.68;;;;;;;2.84;83.00;100596.66;5061400;28;20082;-56
2023/01/31 00:36:25;;;;;;;23.92;4.35;;;;;;;2.81;83.49;100588.94;5060233;28;20058;-59
2023/01/31 00:38:55;;;;;;;24.15;4.10;;;;;;;2.82;83.97;100595.84;5062497;28;20136;-59
2023/01/31 00:41:23;;;;;;;23.67;3.88;;;;;;;2.84;83.72;100601.84;5059148;28;20091;-60
2023/01/31 00:43:51;;;;;;;21.20;4.88;;;;;;;2.79;83.18;100602.00;5059616;28;20609;-60
2023/01/31 00:46:19;;;;;;;17.05;3.08;;;;;;;2.76;83.92;100603.81;5054637;28;20585;-62
2023/01/31 00:48:47;;;;;;;28.38;5.20;;;;;;;2.76;83.49;100609.84;5060890;28;20056;-61
2023/01/31 00:51:14;;;;;;;17.60;3.65;;;;;;;2.76;84.05;100617.66;5061786;28;20175;-59
2023/01/31 00:53:41;;;;;;;22.10;5.57;;;;;;;2.85;83.64;100626.09;5061766;28;20520;-61
2023/01/31 00:56:10;;;;;;;17.83;4.63;;;;;;;2.84;83.36;100627.84;5058160;28;20136;-61
2023/01/31 00:58:38;;;;;;;23.58;3.65;;;;;;;2.87;83.87;100624.31;5058931;28;20193;-58
2023/01/31 01:01:05;;;;;;;22.50;4.22;;;;;;;2.84;83.99;100630.47;5058059;28;20056;-61
2023/01/31 01:03:33;;;;;;;23.73;4.07;;;;;;;2.88;83.29;100641.59;5058218;28;20160;-60
2023/01/31 01:06:01;;;;;;;27.83;4.35;;;;;;;2.89;83.73;100644.19;5054867;28;20193;-58
2023/01/31 01:08:29;;;;;;;22.65;3.90;;;;;;;2.95;83.47;100645.75;5060024;28;20584;-60
2023/01/31 01:11:10;;;;;;;23.50;4.20;;;;;;;3.00;83.30;100642.13;5058549;28;20063;-60
2023/01/31 01:13:38;;;;;;;20.88;3.92;;;;;;;3.00;83.02;100662.94;5058423;28;20124;-58
2023/01/31 01:16:11;;;;;;;20.75;3.55;;;;;;;3.04;83.24;100640.31;5061168;28;20080;-58
2023/01/31 01:18:39;;;;;;;21.98;3.53;;;;;;;3.01;83.33;100649.03;5062146;28;20202;-61
2023/01/31 01:21:08;;;;;;;20.13;4.15;;;;;;;3.01;83.14;100661.19;5057277;28;20143;-59
2023/01/31 01:23:37;;;;;;;15.50;3.72;;;;;;;3.10;82.34;100671.34;5056938;28;20117;-57
2023/01/31 01:26:04;;;;;;;17.05;4.32;;;;;;;3.05;82.72;100671.47;5060355;28;20095;-60
2023/01/31 01:28:34;;;;;;;25.92;3.72;;;;;;;3.08;82.92;100672.28;5060146;28;20044;-60
2023/01/31 01:31:08;;;;;;;21.92;3.80;;;;;;;3.06;82.96;100661.91;5062480;28;20416;-60
2023/01/31 01:33:36;;;;;;;25.05;3.83;;;;;;;3.05;82.00;100681.88;5063470;28;20127;-60
2023/01/31 01:36:05;;;;;;;19.55;3.67;;;;;;;3.06;82.59;100664.50;5061258;28;20156;-60
2023/01/31 01:38:36;;;;;;;19.00;3.05;;;;;;;3.14;82.25;100667.75;5062527;28;20124;-60
2023/01/31 01:41:03;;;;;;;23.88;4.60;;;;;;;3.11;82.31;100661.78;5063869;28;20044;-55
2023/01/31 01:43:54;;;;;;;14.18;2.83;;;;;;;3.12;81.94;100672.16;5061877;28;20689;-59
2023/01/31 01:46:25;;;;;;;26.50;4.10;;;;;;;3.09;81.92;100676.59;5066253;28;20056;-60
2023/01/31 01:48:56;;;;;;;21.63;3.85;;;;;;;3.11;81.86;100688.66;5063391;28;20076;-60
2023/01/31 01:51:24;;;;;;;14.57;3.28;;;;;;;3.11;81.56;100696.47;5065254;28;20129;-59
2023/01/31 01:53:55;;;;;;;22.40;4.28;;;;;;;3.10;81.69;100699.09;5063312;28;20056;-60
2023/01/31 01:56:28;;;;;;;22.50;3.15;;;;;;;3.11;81.70;100712.09;5057866;28;20044;-61
2023/01/31 01:59:11;;;;;;;21.27;3.70;;;;;;;3.09;81.08;100707.81;5062092;28;20056;-59
2023/01/31 02:01:38;;;;;;;22.80;3.20;;;;;;;3.11;81.76;100709.47;5060384;28;20639;-60
2023/01/31 02:04:11;;;;;;;18.27;3.28;;;;;;;3.08;81.60;100722.56;5066582;28;20087;-62
2023/01/31 02:06:38;;;;;;;16.02;3.50;;;;;;;3.19;81.21;100719.66;5060519;28;20053;-60
2023/01/31 02:09:08;;;;;;;23.02;3.20;;;;;;;3.16;81.79;100738.81;5062561;28;20048;-60
2023/01/31 02:11:35;;;;;;;14.88;2.95;;;;;;;3.13;81.79;100717.22;5062778;28;20076;-57
2023/01/31 02:14:07;;;;;;;16.85;3.58;;;;;;;3.12;81.92;100732.00;5062507;28;20055;-59
2023/01/31 02:16:35;;;;;;;13.82;2.83;;;;;;;3.13;82.37;100723.28;5059313;28;20044;-65
2023/01/31 02:19:11;;;;;;;19.20;3.45;;;;;;;3.10;82.43;100731.16;5063904;28;20048;-60
2023/01/31 02:22:07;;;;;;;18.10;3.58;;;;;;;3.18;82.86;100736.16;5061538;28;20535;-59
2023/01/31 02:24:43;;;;;;;26.45;3.92;;;;;;;3.12;82.86;100754.53;5063903;28;20147;-59
2023/01/31 02:27:28;;;;;;;25.80;3.83;;;;;;;3.09;82.90;100763.28;5061537;28;20060;-59
2023/01/31 02:30:26;;;;;;;16.20;3.60;;;;;;;3.19;82.33;100776.88;5061223;28;20136;-61
2023/01/31 02:33:19;;;;;;;20.38;3.45;;;;;;;3.17;82.59;100779.53;5060698;28;20049;-60
2023/01/31 02:36:25;;;;;;;25.50;4.10;;;;;;;3.12;83.26;100793.56;5060667;28;20497;-58
2023/01/31 02:38:58;;;;;;;16.73;3.37;;;;;;;3.11;82.64;100789.22;5060678;28;20045;-58
2023/01/31 02:41:51;;;;;;;17.63;3.22;;;;;;;3.12;82.58;100796.16;5063912;28;20540;-58
2023/01/31 02:47:31;;;;;;;18.75;3.63;;;;;;;3.11;83.32;100787.50;5061596;28;20048;-56
2023/01/31 02:50:26;;;;;;;12.52;2.80;;;;;;;3.12;83.55;100783.16;5051433;28;20700;-61
2023/01/31 02:53:05;;;;;;;26.90;4.18;;;;;;;3.12;82.83;100780.56;5053825;28;20056;-57
2023/01/31 02:58:24;;;;;;;18.85;3.42;;;;;;;3.05;82.43;100774.66;5061266;28;20055;-58
2023/01/31 03:00:55;;;;;;;19.50;3.00;;;;;;;2.98;83.16;100762.72;5061180;28;20244;-59
2023/01/31 03:03:29;;;;;;;24.23;3.67;;;;;;;2.88;83.65;100775.09;5063108;28;20082;-58
2023/01/31 03:06:32;;;;;;;23.58;4.40;;;;;;;2.91;83.30;100777.59;5062893;28;20505;-60
2023/01/31 03:09:06;;;;;;;27.10;4.22;;;;;;;2.84;83.57;100782.97;5056128;28;20060;-60
2023/01/31 03:12:05;;;;;;;23.88;3.95;;;;;;;2.79;84.03;100772.69;5063205;28;20144;-60
2023/01/31 03:14:42;;;;;;;15.63;3.10;;;;;;;2.76;84.20;100767.59;5041094;28;20060;-61
2023/01/31 03:17:33;;;;;;;14.70;3.35;;;;;;;2.74;84.58;100766.75;5062843;28;20077;-57
2023/01/31 03:20:09;;;;;;;18.55;2.90;;;;;;;2.69;84.67;100773.81;5064419;28;20132;-59
2023/01/31 03:22:39;;;;;;;17.92;3.83;;;;;;;2.72;84.69;100765.94;5062871;28;20051;-59
2023/01/31 03:25:09;;;;;;;20.88;3.10;;;;;;;2.61;85.27;100775.72;5055745;28;20710;-59
2023/01/31 03:27:38;;;;;;;12.68;3.05;;;;;;;2.63;85.00;100774.81;5059684;28;20128;-57
2023/01/31 03:30:15;;;;;;;16.23;3.08;;;;;;;2.59;85.63;100777.53;5060755;28;20045;-62
2023/01/31 03:32:54;;;;;;;14.00;3.15;;;;;;;2.57;85.38;100781.88;5063530;28;21558;-57
2023/01/31 03:35:26;;;;;;;24.00;5.30;;;;;;;2.61;85.59;100792.22;5061338;28;20059;-55
2023/01/31 03:37:59;;;;;;;13.93;2.67;;;;;;;2.55;86.25;100792.34;5060946;28;20053;-57
2023/01/31 03:40:33;;;;;;;16.20;3.25;;;;;;;2.47;86.77;100807.25;5064210;28;20585;-60
2023/01/31 03:43:05;;;;;;;16.98;3.33;;;;;;;2.51;86.64;100806.28;5054266;28;20063;-57
2023/01/31 03:45:40;;;;;;;14.20;2.80;;;;;;;2.44;87.04;100797.78;5063342;28;20063;-58
2023/01/31 03:48:13;;;;;;;18.35;4.00;;;;;;;2.39;86.83;100807.44;5062760;28;20486;-61
2023/01/31 03:50:44;;;;;;;14.85;3.13;;;;;;;2.36;87.51;100802.28;5061960;28;20051;-60
2023/01/31 03:53:39;;;;;;;18.73;3.75;;;;;;;2.36;87.82;100804.88;5060280;28;20095;-60
2023/01/31 03:56:17;;;;;;;20.67;3.90;;;;;;;2.36;87.90;100801.44;5062772;28;20144;-57
2023/01/31 03:58:49;;;;;;;23.08;3.85;;;;;;;2.35;87.82;100805.78;5058332;28;20074;-59
2023/01/31 04:01:17;;;;;;;17.73;3.85;;;;;;;2.35;88.35;100800.59;5062268;28;20574;-58
2023/01/31 04:03:51;;;;;;;20.52;3.42;;;;;;;2.32;88.05;100811.03;5046952;28;20087;-59
2023/01/31 04:06:18;;;;;;;20.90;3.28;;;;;;;2.29;88.34;100809.34;5060851;28;20055;-59
2023/01/31 04:08:46;;;;;;;17.88;3.55;;;;;;;2.30;88.75;100810.25;5061416;28;20140;-58
2023/01/31 04:11:14;;;;;;;18.17;2.80;;;;;;;2.26;88.74;100813.78;5062251;28;20071;-61
2023/01/31 04:13:41;;;;;;;14.82;2.70;;;;;;;2.23;88.95;100806.06;5059701;28;20501;-59
2023/01/31 04:16:08;;;;;;;15.95;4.00;;;;;;;2.24;89.09;100813.78;5058138;28;20147;-59
2023/01/31 04:18:35;;;;;;;18.40;2.97;;;;;;;2.24;89.29;100825.94;5060488;28;20147;-58
2023/01/31 04:21:04;;;;;;;16.20;3.38;;;;;;;2.22;89.70;100820.78;5057582;28;20067;-57
2023/01/31 04:23:32;;;;;;;18.33;4.32;;;;;;;2.19;90.15;100818.25;5061353;28;20049;-59
2023/01/31 04:25:59;;;;;;;25.80;4.35;;;;;;;2.19;90.22;100823.44;5061465;28;20052;-56
2023/01/31 04:28:26;;;;;;;27.23;4.53;;;;;;;2.17;90.58;100824.38;5061749;28;20647;-59
2023/01/31 04:30:55;;;;;;;22.30;4.00;;;;;;;2.22;91.03;100817.34;5057978;28;20172;-59
2023/01/31 04:33:23;;;;;;;23.20;2.70;;;;;;;2.21;91.11;100824.28;5061613;28;20079;-58
2023/01/31 04:35:51;;;;;;;18.33;3.00;;;;;;;2.17;91.73;100817.44;5061081;28;20148;-59
2023/01/31 04:38:18;;;;;;;22.55;3.92;;;;;;;2.13;92.32;100841.75;5058554;28;20052;-57
2023/01/31 04:40:46;;;;;;;13.63;3.28;;;;;;;2.16;92.61;100836.50;5063181;28;20072;-56
2023/01/31 04:43:13;;;;;;;19.55;3.30;;;;;;;2.16;92.67;100848.59;5063614;28;20139;-59
2023/01/31 04:45:41;;;;;;;13.98;2.80;;;;;;;2.19;92.66;100849.41;5061863;28;20048;-56
2023/01/31 04:48:08;;;;;;;22.92;3.85;;;;;;;2.19;92.50;100851.16;5063502;28;20075;-57
2023/01/31 04:50:36;;;;;;;23.25;4.20;;;;;;;2.21;93.27;100855.44;5063171;28;20132;-60
2023/01/31 04:53:03;;;;;;;16.40;3.38;;;;;;;2.20;93.30;100876.22;5052242;28;20143;-59
2023/01/31 04:55:31;;;;;;;19.70;2.95;;;;;;;2.17;93.39;100865.94;5057178;28;20081;-58
2023/01/31 04:57:58;;;;;;;15.85;3.83;;;;;;;2.26;93.62;100881.31;5074702;28;20140;-59
2023/01/31 05:00:26;;;;;;;17.85;3.63;;;;;;;2.23;93.54;100866.66;5061203;28;20062;-61
2023/01/31 05:02:53;;;;;;;20.42;3.67;;;;;;;2.21;93.95;100867.56;5060885;28;20053;-61
2023/01/31 05:05:20;;;;;;;25.73;3.75;;;;;;;2.23;94.01;100860.59;5061309;28;20052;-56
2023/01/31 05:07:48;;;;;;;24.70;3.58;;;;;;;2.22;94.25;100874.47;5063918;28;20055;-59
2023/01/31 05:10:16;;;;;;;21.13;2.90;;;;;;;2.22;94.08;100862.34;5062207;28;20525;-58
2023/01/31 05:12:45;;;;;;;21.67;3.55;;;;;;;2.25;94.24;100859.69;5061826;28;20161;-58
2023/01/31 05:15:12;;;;;;;20.08;4.55;;;;;;;2.24;94.34;100863.16;5060605;28;20049;-58
2023/01/31 05:17:39;;;;;;;22.58;4.53;;;;;;;2.25;94.23;100864.00;5054909;28;20097;-56
2023/01/31 05:20:07;;;;;;;14.30;3.03;;;;;;;2.26;94.80;100874.38;5064286;28;20140;-62
2023/01/31 05:22:35;;;;;;;20.42;3.22;;;;;;;2.35;94.07;100870.75;5060726;28;20056;-57
2023/01/31 05:25:02;;;;;;;19.42;3.63;;;;;;;2.34;94.14;100881.13;5064307;28;20057;-56
2023/01/31 05:27:29;;;;;;;24.55;4.32;;;;;;;2.32;94.62;100867.34;5061385;28;20052;-57
2023/01/31 05:29:59;;;;;;;20.58;3.72;;;;;;;2.33;95.02;100863.84;5065365;28;20117;-61
2023/01/31 05:32:26;;;;;;;19.35;3.28;;;;;;;2.37;94.56;100858.56;5058024;28;20095;-58
2023/01/31 05:34:53;;;;;;;15.05;2.97;;;;;;;2.39;94.65;100862.00;5054395;28;20048;-57
2023/01/31 05:37:21;;;;;;;19.40;3.28;;;;;;;2.39;94.22;100864.59;5061208;28;20060;-60
2023/01/31 05:39:48;;;;;;;22.10;3.90;;;;;;;2.42;94.46;100874.91;5063444;28;20106;-60
2023/01/31 05:42:15;;;;;;;21.98;3.78;;;;;;;2.45;94.13;100880.03;5063984;28;20135;-57
2023/01/31 05:44:42;;;;;;;14.23;3.15;;;;;;;2.50;93.62;100898.97;5061477;28;20175;-57
2023/01/31 05:47:09;;;;;;;16.40;3.47;;;;;;;2.53;93.76;100885.94;5060479;28;20130;-61
2023/01/31 05:49:37;;;;;;;17.98;3.38;;;;;;;2.57;94.03;100891.03;5061468;28;20539;-58
2023/01/31 05:52:04;;;;;;;15.40;3.22;;;;;;;2.61;93.27;100884.91;5055150;28;20059;-59
2023/01/31 05:54:31;;;;;;;19.33;3.78;;;;;;;2.61;93.18;100885.78;5061119;28;20052;-59
2023/01/31 05:56:58;;;;;;;16.35;3.15;;;;;;;2.66;93.13;100886.53;5061728;28;20132;-58
2023/01/31 05:59:29;;;;;;;17.85;3.45;;;;;;;2.69;93.25;100893.38;5055678;28;20059;-60
2023/01/31 06:01:57;;;;;;;23.67;3.85;;;;;;;2.70;93.61;100890.78;5060684;28;20074;-57
2023/01/31 06:04:24;;;;;;;35.30;4.10;;;;;;;2.72;93.45;100898.53;5056841;28;20053;-58
2023/01/31 06:06:51;;;;;;;21.92;4.03;;;;;;;2.76;93.37;100901.03;5055503;28;20091;-59
2023/01/31 06:09:18;;;;;;;23.45;4.00;;;;;;;2.79;93.57;100900.97;5056291;28;20585;-60
2023/01/31 06:11:45;;;;;;;20.77;4.25;;;;;;;2.89;93.36;100885.16;5060062;28;20375;-60
2023/01/31 06:14:13;;;;;;;29.45;4.15;;;;;;;2.83;94.18;100893.91;5058680;28;20056;-57
2023/01/31 06:16:40;;;;;;;19.23;3.58;;;;;;;2.84;93.79;100885.25;5059822;28;20054;-57
2023/01/31 06:19:07;;;;;;;31.50;6.10;;;;;;;2.84;94.21;100903.47;5058845;28;20053;-61
2023/01/31 06:21:34;;;;;;;15.02;3.45;;;;;;;2.86;94.48;100893.00;5063070;28;20056;-59
2023/01/31 06:24:02;;;;;;;23.20;3.72;;;;;;;2.88;94.43;100899.00;5063228;28;20066;-58
2023/01/31 06:26:29;;;;;;;16.67;3.67;;;;;;;2.89;94.80;100904.19;5064661;28;20063;-60
2023/01/31 06:28:57;;;;;;;21.50;4.40;;;;;;;2.89;94.36;100909.41;5063933;28;20044;-60
2023/01/31 06:31:25;;;;;;;23.25;4.43;;;;;;;2.89;94.94;100919.81;5063643;28;20441;-59
2023/01/31 06:33:52;;;;;;;28.55;4.65;;;;;;;2.89;94.55;100904.19;5063169;28;20624;-57
2023/01/31 06:36:22;;;;;;;22.70;4.20;;;;;;;2.96;94.02;100913.56;5062473;28;20223;-61
2023/01/31 06:38:51;;;;;;;25.05;4.68;;;;;;;2.96;94.07;100916.16;5067054;28;20049;-61
2023/01/31 06:41:19;;;;;;;24.77;4.00;;;;;;;2.93;94.14;100921.44;5063436;28;20049;-60
2023/01/31 06:43:46;;;;;;;20.90;4.38;;;;;;;2.95;94.73;100921.41;5064021;28;20596;-59
2023/01/31 06:46:13;;;;;;;21.17;4.85;;;;;;;2.97;94.61;100924.81;5060660;28;20051;-61
2023/01/31 06:48:41;;;;;;;24.20;5.47;;;;;;;3.01;94.49;100936.84;5056980;28;20171;-59
2023/01/31 06:51:08;;;;;;;20.38;3.67;;;;;;;3.02;94.06;100921.25;5057635;28;20044;-61
2023/01/31 06:53:35;;;;;;;23.25;4.97;;;;;;;3.03;93.75;100924.69;5061254;28;20080;-60
2023/01/31 06:56:03;;;;;;;21.80;3.90;;;;;;;3.02;94.50;100920.38;5057746;28;20049;-58
2023/01/31 06:58:32;;;;;;;25.08;4.57;;;;;;;3.05;94.33;100918.53;5060150;28;20060;-60
2023/01/31 07:01:07;;;;;;;15.75;3.80;;;;;;;3.10;94.66;100917.59;5059612;28;20076;-61
2023/01/31 07:03:34;;;;;;;23.08;4.60;;;;;;;3.09;94.94;100918.47;5061378;28;20063;-60
2023/01/31 07:06:01;;;;;;;18.67;4.30;;;;;;;3.09;95.44;100918.47;5058842;28;20055;-60
2023/01/31 07:08:29;;;;;;;22.83;4.90;;;;;;;3.12;95.39;100913.22;5041721;28;20063;-60
2023/01/31 07:11:01;;;;;;;22.05;4.07;;;;;;;3.12;95.79;100918.44;5058872;28;20045;-62
2023/01/31 07:13:29;;;;;;;24.95;3.38;;;;;;;3.16;95.98;100920.06;5041339;28;20576;-61
2023/01/31 07:15:56;;;;;;;21.77;4.57;;;;;;;3.17;95.95;100917.41;5061176;28;20135;-60
2023/01/31 07:18:23;;;;;;;22.60;3.72;;;;;;;3.19;95.64;100912.16;5060839;28;20122;-61
2023/01/31 07:20:51;;;;;;;15.55;3.20;;;;;;;3.22;96.16;100914.69;5060489;28;20131;-59
2023/01/31 07:23:18;;;;;;;26.67;3.70;;;;;;;3.20;96.22;100904.34;5062003;28;20424;-59
2023/01/31 07:25:45;;;;;;;21.25;4.18;;;;;;;3.18;96.30;100897.44;5053465;28;20068;-60
2023/01/31 07:28:13;;;;;;;17.05;3.25;;;;;;;3.20;96.96;100890.47;5060530;28;20219;-60
2023/01/31 07:30:42;;;;;;;13.15;2.97;;;;;;;3.18;97.03;100908.72;5062124;28;20063;-61
2023/01/31 07:33:10;;;;;;;15.65;3.67;;;;;;;3.18;97.20;100916.50;5061982;28;20076;-61
2023/01/31 07:35:37;;;;;;;20.40;4.68;;;;;;;3.15;97.98;100914.00;5061816;28;20045;-61
2023/01/31 07:38:04;;;;;;;19.13;4.35;;;;;;;3.13;98.50;100913.16;5066631;28;20529;-61
2023/01/31 07:40:32;;;;;;;20.35;4.03;;;;;;;3.19;98.37;100913.00;5064464;28;20136;-60
2023/01/31 07:42:59;;;;;;;31.23;4.05;;;;;;;3.21;98.17;100907.78;5058919;28;20048;-61
2023/01/31 07:45:26;;;;;;;24.83;3.45;;;;;;;3.17;98.34;100909.59;5063515;28;20056;-63
2023/01/31 07:47:56;;;;;;;25.42;3.78;;;;;;;3.19;98.46;100919.97;5059048;28;20087;-60
2023/01/31 07:50:25;;;;;;;25.85;4.80;;;;;;;3.21;98.58;100916.44;5066275;28;20127;-61
2023/01/31 07:52:53;;;;;;;21.75;3.97;;;;;;;3.26;98.54;100927.59;5061074;28;20060;-59
2023/01/31 07:55:20;;;;;;;23.90;3.80;;;;;;;3.22;98.50;100920.75;5062182;28;20044;-60
2023/01/31 07:57:48;;;;;;;20.52;2.72;;;;;;;3.30;98.46;100921.44;5061639;28;20052;-60
2023/01/31 08:05:46;;;;;;;23.88;3.95;;;;;;;3.23;99.15;100900.78;5063426;28;20138;-59
2023/01/31 08:08:13;;;;;;;17.92;3.92;;;;;;;3.32;98.88;100904.91;5075742;28;20044;-61
2023/01/31 08:10:41;;;;;;;14.70;3.65;;;;;;;3.32;99.39;100903.16;5061517;28;20102;-60
2023/01/31 08:13:10;;;;;;;22.52;4.13;;;;;;;3.32;99.01;100903.16;5060188;28;20048;-61
2023/01/31 08:15:37;;;;;;;24.55;3.42;;;;;;;3.32;99.44;100897.13;5063681;28;20040;-59
2023/01/31 08:18:05;;;;;;;19.35;3.88;;;;;;;3.32;99.94;100902.31;5059919;28;20050;-57
2023/01/31 08:20:33;;;;;;;22.02;3.78;;;;;;;3.34;99.65;100901.41;5060252;28;20076;-60
2023/01/31 08:23:00;;;;;;;23.73;4.03;;;;;;;3.33;99.70;100897.06;5054656;28;20083;-59
2023/01/31 08:25:29;;;;;;;19.60;3.90;;;;;;;3.37;99.69;100897.84;5061845;28;20167;-61
2023/01/31 08:27:57;;;;;;;23.67;4.28;;;;;;;3.38;99.71;100908.25;5056239;28;20436;-61
2023/01/31 08:30:24;;;;;;;19.73;4.32;;;;;;;3.44;99.51;100889.88;5058927;28;20497;-61
2023/01/31 08:32:51;;;;;;;18.75;3.22;;;;;;;3.52;99.08;100892.28;5064245;28;20098;-61
2023/01/31 08:35:18;;;;;;;15.63;3.85;;;;;;;3.50;98.64;100881.88;5048398;28;20045;-60
2023/01/31 08:37:46;;;;;;;15.68;2.75;;;;;;;3.47;99.25;100895.00;5061801;28;20142;-62
2023/01/31 08:40:13;;;;;;;23.20;3.50;;;;;;;3.51;98.66;100891.44;5063920;28;20054;-60
2023/01/31 08:42:41;;;;;;;15.18;3.35;;;;;;;3.56;99.10;100891.31;5064650;28;20159;-62
2023/01/31 08:45:09;;;;;;;22.38;3.30;;;;;;;3.55;99.32;100876.56;5065424;28;20056;-61
2023/01/31 08:47:37;;;;;;;14.90;3.30;;;;;;;3.48;100.00;100890.66;5065281;28;20054;-59
2023/01/31 08:50:07;;;;;;;15.30;2.83;;;;;;;3.45;100.00;100893.31;5064236;28;20059;-61
2023/01/31 08:53:14;;;;;;;17.67;3.40;;;;;;;3.48;100.00;100886.28;5060962;28;20632;-60
2023/01/31 08:55:41;;;;;;;20.48;4.05;;;;;;;3.50;100.00;100879.28;5054486;28;20118;-59
2023/01/31 08:58:08;;;;;;;19.02;3.95;;;;;;;3.48;100.00;100890.66;5061391;28;20420;-62
2023/01/31 09:03:28;;;;;;;17.63;3.85;;;;;;;3.59;100.00;100887.75;5057222;28;20152;-60
2023/01/31 09:06:04;;;;;;;17.10;3.47;;;;;;;3.57;100.00;100876.53;5061019;28;20468;-60
2023/01/31 09:08:31;;;;;;;;;;;;;;;3.60;100.00;100879.91;5060834;28;20136;-62
2023/01/31 09:11:02;;;;;;;16.15;3.55;;;;;;;3.62;99.71;100883.34;5053547;28;19931;-61
2023/01/31 09:13:29;;;;;;;27.73;4.10;;;;;;;3.66;99.46;100878.91;5053017;28;20556;-58
2023/01/31 09:16:02;;;;;;;21.38;3.53;;;;;;;3.62;99.59;100870.31;5057740;28;20141;-57
2023/01/31 09:18:29;;;;;;;21.33;3.78;;;;;;;3.63;99.68;100861.59;5057642;28;20052;-60
2023/01/31 09:21:09;;;;;;;23.73;3.88;;;;;;;3.68;99.14;100864.94;5061606;28;20182;-59
2023/01/31 09:23:37;;;;;;;19.05;4.50;;;;;;;3.68;99.44;100856.28;5063358;28;20044;-61
2023/01/31 09:26:11;;;;;;;20.52;3.63;;;;;;;3.66;99.38;100855.47;5057515;28;20056;-60
2023/01/31 09:28:41;;;;;;;24.95;4.32;;;;;;;3.71;99.34;100858.81;5047070;28;20600;-60
2023/01/31 09:31:14;;;;;;;21.40;3.55;;;;;;;3.67;98.79;100857.19;5053594;28;20159;-61
2023/01/31 09:33:42;;;;;;;24.58;3.67;;;;;;;3.68;98.68;100859.72;5057022;28;20755;-61
2023/01/31 09:36:17;;;;;;;17.95;3.08;;;;;;;3.76;98.25;100846.50;5056286;28;20140;-61
2023/01/31 09:38:45;;;;;;;18.70;4.53;;;;;;;3.76;97.52;100843.91;5055244;28;20049;-61
2023/01/31 09:41:50;;;;;;;23.13;3.65;;;;;;;3.77;97.68;100837.78;5060036;28;20484;-61
2023/01/31 09:44:32;;;;;;;23.33;3.40;;;;;;;3.79;97.66;100839.47;5056518;28;20883;-60
2023/01/31 09:47:13;;;;;;;13.77;3.35;;;;;;;3.88;97.39;100840.97;5047387;28;20139;-61
2023/01/31 09:50:19;;;;;;;21.02;4.18;;;;;;;3.99;96.71;100836.31;5058995;28;20072;-60
2023/01/31 09:52:47;;;;;;;30.90;5.57;;;;;;;3.99;96.17;100823.28;5039822;28;20067;-60
2023/01/31 09:55:19;;;;;;;23.77;3.50;;;;;;;3.97;95.16;100816.41;5057528;28;20148;-60
2023/01/31 09:58:19;;;;;;;38.28;4.93;;;;;;;4.02;96.16;100815.38;5053657;28;20060;-60
2023/01/31 10:00:51;;;;;;;32.85;4.20;;;;;;;4.06;95.65;100806.59;5040253;28;20599;-60
2023/01/31 10:03:39;;;;;;;28.27;5.03;;;;;;;4.11;95.02;100809.06;5055420;28;20139;-58
2023/01/31 10:06:16;;;;;;;26.95;4.75;;;;;;;4.11;94.83;100803.00;5058847;28;20131;-60
2023/01/31 10:08:47;;;;;;;25.27;4.18;;;;;;;4.17;95.11;100803.66;5048262;28;20116;-59
2023/01/31 10:11:28;;;;;;;28.02;5.03;;;;;;;4.22;94.14;100812.19;5059068;28;21568;-60
2023/01/31 10:14:16;;;;;;;18.48;4.15;;;;;;;4.24;93.99;100799.13;5065866;28;20139;-60
2023/01/31 10:16:57;;;;;;;17.48;3.25;;;;;;;4.24;93.77;100793.91;5064006;28;20044;-60
2023/01/31 10:19:28;;;;;;;23.52;4.43;;;;;;;4.20;94.47;100787.94;5065566;28;20846;-59
2023/01/31 10:22:04;;;;;;;17.65;3.92;;;;;;;4.22;94.27;100799.16;5063857;28;20044;-61
2023/01/31 10:24:34;;;;;;;;;;;;;;;4.25;93.26;100782.59;5062031;28;20135;-60
2023/01/31 10:27:10;;;;;;;24.38;4.22;;;;;;;4.26;93.57;100773.88;5058379;28;20611;-61
2023/01/31 10:29:44;;;;;;;30.20;3.92;;;;;;;4.25;93.40;100806.88;5064526;28;20052;-61
2023/01/31 10:32:20;;;;;;;22.10;4.13;;;;;;;4.28;93.08;100765.13;5060877;28;20048;-60
2023/01/31 10:34:53;;;;;;;16.92;3.63;;;;;;;4.25;93.35;100762.59;5080976;28;20098;-60
2023/01/31 10:37:34;;;;;;;24.67;4.32;;;;;;;4.28;93.72;100756.44;5063286;28;20053;-60
2023/01/31 10:40:08;;;;;;;20.60;4.03;;;;;;;4.29;93.76;100765.97;5062792;28;20067;-61
2023/01/31 10:42:37;;;;;;;23.60;4.13;;;;;;;4.34;94.15;100739.75;5064582;28;20059;-59
2023/01/31 10:45:07;;;;;;;28.40;4.68;;;;;;;4.32;94.80;100739.78;5078184;28;20079;-61
2023/01/31 10:47:35;;;;;;;27.42;4.20;;;;;;;4.39;95.26;100736.09;5061713;28;20161;-61
2023/01/31 10:50:20;;;;;;;27.00;5.07;;;;;;;4.34;95.41;100743.22;5062149;28;20118;-61
2023/01/31 10:53:22;;;;;;;16.33;4.25;;;;;;;4.41;95.04;100720.41;5056809;28;20149;-61
2023/01/31 10:56:02;;;;;;;20.83;4.07;;;;;;;4.39;95.17;100725.66;5064215;28;20056;-60
2023/01/31 10:58:30;;;;;;;22.17;4.50;;;;;;;4.40;95.58;100740.41;5060039;28;20135;-61
2023/01/31 11:00:57;;;;;;;16.05;4.05;;;;;;;4.46;94.30;100727.19;5062931;28;20516;-61
2023/01/31 11:03:25;;;;;;;25.00;3.90;;;;;;;4.49;94.75;100711.44;5059194;28;20465;-60
2023/01/31 11:05:56;;;;;;;25.27;4.22;;;;;;;4.52;94.64;100708.75;5055575;28;20884;-60
2023/01/31 11:08:40;;;;;;;19.63;4.00;;;;;;;4.59;94.02;100701.56;5061974;28;20059;-60
2023/01/31 11:11:10;;;;;;;28.23;5.22;;;;;;;4.57;94.17;100688.56;5063123;28;20142;-61
2023/01/31 11:13:38;;;;;;;20.98;4.50;;;;;;;4.55;94.10;100689.53;5059793;28;20496;-61
2023/01/31 11:16:09;;;;;;;22.63;5.93;;;;;;;4.57;94.02;100698.16;5059246;28;20135;-60
2023/01/31 11:18:44;;;;;;;25.48;5.63;;;;;;;4.66;93.34;100677.00;5066932;28;20076;-61
2023/01/31 11:21:38;;;;;;;23.10;4.15;;;;;;;4.65;93.19;100674.44;5057479;28;20056;-61
2023/01/31 11:24:18;;;;;;;20.75;4.38;;;;;;;4.58;93.03;100674.63;5054919;28;20152;-59
2023/01/31 11:26:59;;;;;;;20.17;3.63;;;;;;;4.60;92.57;100665.94;5058347;28;20499;-61
2023/01/31 11:29:43;;;;;;;17.45;4.20;;;;;;;4.64;92.72;100649.25;5058302;28;20884;-61
2023/01/31 11:32:20;;;;;;;19.77;4.07;;;;;;;4.60;93.69;100650.28;5054295;28;20053;-60
2023/01/31 11:35:08;;;;;;;38.67;5.40;;;;;;;4.65;92.71;100640.53;5060302;28;20474;-58
2023/01/31 11:37:48;;;;;;;15.60;4.78;;;;;;;4.59;94.13;100628.53;5076578;28;20056;-60
2023/01/31 11:40:29;;;;;;;28.83;5.63;;;;;;;4.66;93.40;100648.31;5064374;28;20136;-60
2023/01/31 11:42:58;;;;;;;18.00;3.50;;;;;;;4.64;94.64;100631.88;5065589;28;20114;-61
2023/01/31 11:45:31;;;;;;;31.02;6.43;;;;;;;4.60;95.11;100650.28;5067044;28;20057;-61
2023/01/31 11:48:21;;;;;;;29.17;4.60;;;;;;;4.63;94.58;100624.09;5068572;28;20055;-61
2023/01/31 11:50:51;;;;;;;32.92;5.10;;;;;;;4.75;93.16;100623.66;5084442;28;20143;-61
2023/01/31 11:53:22;;;;;;;15.48;4.13;;;;;;;4.77;93.14;100616.63;5068625;28;20076;-60
2023/01/31 11:55:50;;;;;;;33.33;5.13;;;;;;;4.69;93.47;100614.31;5068109;28;20508;-61
2023/01/31 11:58:31;;;;;;;21.10;5.13;;;;;;;4.69;94.08;100600.44;5068431;28;20139;-61
2023/01/31 12:01:01;;;;;;;23.95;4.22;;;;;;;4.70;94.04;100586.47;5063559;28;20483;-61
2023/01/31 12:03:29;;;;;;;22.30;5.50;;;;;;;4.72;94.54;100587.25;5067561;28;20160;-60